Forside
METAR-TAF:

METAR-TAF

Lufthavne :

Hong Kong International Airport

Hongkong, Kina

Breddekreds: 22-19N, længdekreds: 113-55E, højde: 9 m

Aktuelle vejr

Denne rapport blev lavet for 16 minutter siden, kl. 13:00 UTC
Vind 10 kt fra østnordøst
Temperatur 21°C
Fugtighed 78%
Tryk 1019 hPa
Sigt: 9000 m
Nogle få skyer i en højde af 1800 ft
Spredte skyer i en højde af 3000 ft

METAR: VHHH 191300Z 07010KT 9000 FEW018 SCT030 21/17 Q1019 NOSIG

Tid: 21:16 (13:16 UTC)

Vejrudsigter

Denne rapport blev lavet for 2 timer og 16 minutter siden, kl. 11:00 UTC
Foreløbig gælder fra 19 på 12 UTC til 20 på 18 UTC
Vind 10 kt fra øst
Sigt: 9000 m
Nogle få skyer i en højde af 2000 ft
Midlertidig
fra 20 på 03 UTC til 20 på 09 UTC
Vind 10 kt fra vest

TAF: VHHH 191100Z 1912/2018 10010KT 9000 FEW020 TX26/2006Z TN20/1922Z TEMPO 2003/2009 27010KT

Vejrobservationer og prognoser fra mere end 4000 lufthavne (METAR og TAF).

De gule og røde prikker repræsenterer de meteorologiske stationer.

Flyt musen over at se navnet på stationen.

Så klik over at se vejr observationer og prognoser.

At skifte det kort: Klik på de grønne knapper med et sort kors for at zoome ind; på den grønne knap med en bindestreg for at zoome ud; eller på de grønne pile for tilstødende kort.


METAR-TAF: